Flight Track Log - Related Links

Times and Time Zones

All times are in EDT time to prevent confusion due to time zone crossing. See the ASQ6108 flight status page for this flight to view local times or setup timezone preferences in your user account.

Time Position Orientation Groundspeed Altitude Reporting Facility
EDT Latitude Longitude Course Direction KTS MPH feet Rate Location/Type
Tue 06:34:03 AM 38.1442 -85.7161 345° North 169 194 2,100  Level FAA TRACON SMA TRACON (SMA)
Tue 06:34:22 AM 38.1286 -85.7114 167° South 183 211 2,800 3,150 Climbing FAA TRACON SMA TRACON (SMA)
Tue 06:34:43 AM 38.1075 -85.7050 167° South 200 230 4,200 3,900 Climbing FAA TRACON SMA TRACON (SMA)
Tue 06:35:02 AM 38.0914 -85.7114 197° South 206 237 5,400 3,385 Climbing FAA TRACON SMA TRACON (SMA)
Tue 06:35:22 AM 38.0800 -85.7264 226° Southwest 201 231 6,400 3,073 Climbing FAA TRACON SMA TRACON (SMA)
Tue 06:35:43 AM 38.0764 -85.7478 258° West 206 237 7,500 3,450 Climbing FAA TRACON SMA TRACON (SMA)
Tue 06:36:02 AM 38.0875 -85.7719 300° West 216 249 8,700 2,550 Climbing FAA TRACON SMA TRACON (SMA)
Tue 06:36:23 AM 38.1053 -85.7836 333° Northwest 231 266 9,200 1,350 Climbing FAA TRACON SMA TRACON (SMA)
Tue 06:36:42 AM 38.1272 -85.7942 339° North 260 299 9,600 1,231 Climbing FAA TRACON SMA TRACON (SMA)
Tue 06:37:02 AM 38.1592 -85.8086 340° North 314 361 10,000 585 Climbing FAA TRACON SMA TRACON (SMA)
Tue 06:37:23 AM 38.1894 -85.8186 345° North 358 412 10,000  Level FAA TRACON SMA TRACON (SMA)
Tue 06:37:42 AM 38.2203 -85.8275 347° North 374 430 10,000 750 Level FAA TRACON SMA TRACON (SMA)
Tue 06:38:03 AM 38.2589 -85.8397 346° North 372 428 10,500 2,100 Climbing FAA TRACON SMA TRACON (SMA)
Tue 06:38:22 AM 38.2894 -85.8492 346° North 368 423 11,400 2,250 Climbing FAA TRACON SMA TRACON (SMA)
Tue 06:38:43 AM 38.3203 -85.8594 345° North 370 426 12,000 1,650 Climbing FAA TRACON SMA TRACON (SMA)
Tue 06:39:00 AM 38.2777 -85.9704 345° North  Level FlightAware Approximate
Tue 06:39:02 AM 38.3517 -85.8692 346° North 374 430 12,500  Level FAA TRACON SMA TRACON (SMA)
Tue 06:39:22 AM 38.3914 -85.8825 345° North 383 441 13,200 2,195 Climbing FAA TRACON SMA TRACON (SMA)
Tue 06:39:43 AM 38.4222 -85.8942 343° North 381 438 14,000 2,400 Climbing FAA TRACON SMA TRACON (SMA)
Tue 06:40:02 AM 38.4539 -85.9044 346° North 380 437 14,800 2,700 Climbing FAA TRACON SMA TRACON (SMA)
Tue 06:40:23 AM 38.4925 -85.9169 346° North 373 429 15,800 2,634 Climbing FAA TRACON SMA TRACON (SMA)
Tue 06:40:43 AM 38.5225 -85.9283 343° North 369 425 16,600 2,462 Climbing FAA TRACON SMA TRACON (SMA)
Tue 06:41:02 AM 38.5531 -85.9381 346° North 366 421 17,400 2,550 Climbing FAA TRACON SMA TRACON (SMA)
Tue 06:41:23 AM 38.5897 -85.9514 344° North 358 412 18,300 2,700 Climbing FAA TRACON SMA TRACON (SMA)
Tue 06:41:42 AM 38.6189 -85.9608 346° North 354 407 19,200 2,400 Climbing FAA TRACON SMA TRACON (SMA)
Tue 06:42:03 AM 38.6550 -85.9739 344° North 349 402 19,900 1,171 Climbing FAA TRACON SMA TRACON (SMA)
Tue 06:42:23 AM 38.6844 -85.9839 345° North 355 409 20,000 150 Climbing FAA TRACON SMA TRACON (SMA)
Tue 06:42:43 AM 38.7153 -85.9939 346° North 367 422 20,000  Level FAA TRACON SMA TRACON (SMA)
Tue 06:43:03 AM 38.7556 -86.0064 346° North 385 443 20,000  Level FAA TRACON SMA TRACON (SMA)
Tue 06:43:22 AM 38.7889 -86.0108 354° North 391 450 20,000  Level FAA TRACON SMA TRACON (SMA)
Tue 06:43:43 AM 38.8239 -86.0050 North 402 463 20,000  Level FAA TRACON SMA TRACON (SMA)
Tue 06:44:02 AM 38.8575 -85.9994 North 404 465 20,000  Level FAA TRACON SMA TRACON (SMA)
Tue 06:44:22 AM 38.9006 -85.9908 North 405 466 20,000  Level FAA TRACON SMA TRACON (SMA)
Tue 06:44:43 AM 38.9347 -85.9847 North 405 466 20,000  Level FAA TRACON SMA TRACON (SMA)
Tue 06:45:02 AM 38.9689 -85.9783 North 402 463 20,000  Level FAA TRACON SMA TRACON (SMA)
Tue 06:45:23 AM 39.0117 -85.9683 10° North 403 464 20,000  Level FAA TRACON SMA TRACON (SMA)
Tue 06:45:43 AM 39.0453 -85.9625 North 402 463 20,000  Level FAA TRACON SMA TRACON (SMA)
Tue 06:46:02 AM 39.0794 -85.9553 North 400 460 20,000  Level FAA TRACON SMA TRACON (SMA)
Tue 06:46:23 AM 39.1214 -85.9489 North 397 457 20,000  Level FAA TRACON SMA TRACON (SMA)
Tue 06:46:42 AM 39.1553 -85.9417 North 400 460 20,000  Level FAA TRACON SMA TRACON (SMA)
Tue 06:47:03 AM 39.1719 -85.9394 North 398 458 20,000  Level FAA TRACON SMA TRACON (SMA)
Tue 06:48:16 AM 39.3142 -85.9117 North 399 459 20,000  Level Indianapolis Center
Tue 06:49:17 AM 39.4233 -85.8897 North 396 456 20,000  Level Indianapolis Center
Tue 06:50:17 AM 39.5356 -85.8692 North 401 461 20,000  Level Indianapolis Center
Tue 06:51:18 AM 39.6481 -85.8461 North 406 467 20,000  Level Indianapolis Center
Tue 06:52:19 AM 39.7714 -85.8239 North 400 460 20,000  Level Indianapolis Center
Tue 06:53:20 AM 39.8781 -85.8025 North 389 448 20,000  Level Indianapolis Center
Tue 06:54:21 AM 39.9858 -85.7806 North 387 445 20,000  Level Indianapolis Center
Tue 06:55:21 AM 40.0942 -85.7817 360° North 396 456 20,000  Level Indianapolis Center
Tue 06:55:49 AM 40.1428 -85.7950 348° North 393 452 20,000  Level Chicago Center
Tue 06:56:50 AM 40.2503 -85.8236 349° North 395 455 20,000  Level Chicago Center
Tue 06:57:50 AM 40.3433 -85.8978 329° Northwest 395 455 20,000  Level Chicago Center
Tue 06:58:51 AM 40.4233 -85.9964 317° Northwest 395 455 20,000  Level Chicago Center
Tue 06:59:54 AM 40.5033 -86.0964 316° Northwest 397 457 20,000  Level Chicago Center
Tue 07:00:55 AM 40.5839 -86.1961 317° Northwest 398 458 20,000  Level Chicago Center
Tue 07:01:55 AM 40.6639 -86.2953 317° Northwest 395 455 20,000  Level Chicago Center
Tue 07:02:56 AM 40.7431 -86.3958 316° Northwest 396 456 20,000  Level Chicago Center
Tue 07:03:57 AM 40.8219 -86.4975 316° Northwest 395 455 20,000 -545 Level Chicago Center
Tue 07:04:57 AM 40.9025 -86.5983 317° Northwest 398 458 18,900 -1,438 Descending Chicago Center
Tue 07:05:58 AM 40.9797 -86.6972 316° Northwest 391 450 17,100 -2,016 Descending Chicago Center
Tue 07:06:59 AM 41.0639 -86.8058 316° Northwest 383 441 14,800 -2,115 Descending Chicago Center
Tue 07:08:00 AM 41.1389 -86.9014 316° Northwest 377 434 12,800 -1,328 Descending Chicago Center
Tue 07:09:01 AM 41.2111 -86.9953 316° Northwest 368 423 12,100 -397 Descending Chicago Center
Tue 07:10:01 AM 41.2836 -87.0881 316° Northwest 365 420 12,000 -149 Descending Chicago Center
Tue 07:11:02 AM 41.3572 -87.1836 316° Northwest 370 426 11,800 -353 Descending Chicago Center
Tue 07:11:26 AM 41.4000 -87.2333 319° Northwest 355 409 11,500 -533 Descending Chicago TRACON
Tue 07:12:32 AM 41.4667 -87.3167 317° Northwest 351 404 11,000 -238 Descending Chicago TRACON
Tue 07:13:32 AM 41.5500 -87.4000 323° Northwest 354 407 11,000  Level Chicago TRACON
Tue 07:14:05 AM 41.5914 -87.4567 314° West 354 407 11,000  Level Chicago Center
Tue 07:15:06 AM 41.6694 -87.5428 321° Northwest 365 420 11,000 -246 Level Chicago Center
Tue 07:16:07 AM 41.7411 -87.6236 320° Northwest 347 399 10,500 -673 Descending Chicago Center
Tue 07:16:44 AM 41.7833 -87.6667 323° Northwest 296 341 9,900 -1,223 Descending Chicago TRACON
Tue 07:17:50 AM 41.8500 -87.7333 323° Northwest 272 313 8,400 -1,400 Descending Chicago TRACON
Tue 07:18:44 AM 41.9333 -87.7333 360° North 294 338 7,100 -789 Descending Chicago TRACON
Tue 07:19:44 AM 42.0000 -87.7167 11° North 226 260 6,900 -667 Descending Chicago TRACON
Tue 07:20:50 AM 42.0500 -87.6667 37° Northeast 223 257 5,700 -942 Descending Chicago TRACON
Tue 07:21:45 AM 42.1000 -87.6667 360° North 212 244 5,000 -835 Descending Chicago TRACON
Tue 07:22:45 AM 42.1333 -87.7167 312° West 188 216 4,100 -800 Descending Chicago TRACON
Tue 07:23:15 AM 42.1267 -87.7461 253° West 187 215 3,800 -500 Descending Chicago Center
Tue 07:23:45 AM 42.1167 -87.7667 237° Southwest 146 168 3,600 -643 Descending Chicago TRACON
Tue 07:24:39 AM 42.0833 -87.8000 217° Southwest 153 176 2,900 -789 Descending Chicago TRACON
Tue 07:25:39 AM 42.0500 -87.8333 217° Southwest 140 161 2,100 -714 Descending Chicago TRACON
Tue 07:26:45 AM 42.0333 -87.8667 236° Southwest 110 127 1,400 -619 Descending Chicago TRACON
Tue 07:27:45 AM 42.0000 -87.9000 217° Southwest 123 142 800 -600 Descending Chicago TRACON
Tue 07:30:00 AM 41.9817 -87.9067 243° Southwest  Level Estimated

Login

Don't have an account? Register now (free) for customized features, flight alerts, and more!